sensor_id;sensor_type;location;lat;lon;timestamp;P1;durP1;ratioP1;P2;durP2;ratioP2
65717;SDS011;52445;52.466;-1.016;2023-11-21T00:01:06;5.75;;;2.92;;
65717;SDS011;52445;52.466;-1.016;2023-11-21T00:03:35;8.98;;;3.90;;
65717;SDS011;52445;52.466;-1.016;2023-11-21T00:06:02;6.63;;;3.05;;
65717;SDS011;52445;52.466;-1.016;2023-11-21T00:08:29;7.55;;;3.67;;
65717;SDS011;52445;52.466;-1.016;2023-11-21T00:10:56;5.53;;;2.70;;
65717;SDS011;52445;52.466;-1.016;2023-11-21T00:13:23;5.25;;;2.92;;
65717;SDS011;52445;52.466;-1.016;2023-11-21T00:15:50;9.38;;;4.45;;
65717;SDS011;52445;52.466;-1.016;2023-11-21T00:18:17;7.07;;;3.17;;
65717;SDS011;52445;52.466;-1.016;2023-11-21T00:20:46;8.10;;;3.75;;
65717;SDS011;52445;52.466;-1.016;2023-11-21T00:23:13;4.68;;;2.55;;
65717;SDS011;52445;52.466;-1.016;2023-11-21T00:25:40;6.97;;;3.08;;
65717;SDS011;52445;52.466;-1.016;2023-11-21T00:28:07;6.72;;;3.50;;
65717;SDS011;52445;52.466;-1.016;2023-11-21T00:30:36;8.45;;;3.47;;
65717;SDS011;52445;52.466;-1.016;2023-11-21T00:33:03;5.05;;;2.67;;
65717;SDS011;52445;52.466;-1.016;2023-11-21T00:35:30;3.85;;;2.55;;
65717;SDS011;52445;52.466;-1.016;2023-11-21T00:37:57;5.30;;;3.10;;
65717;SDS011;52445;52.466;-1.016;2023-11-21T00:40:24;5.55;;;2.60;;
65717;SDS011;52445;52.466;-1.016;2023-11-21T00:42:51;5.38;;;3.38;;
65717;SDS011;52445;52.466;-1.016;2023-11-21T00:45:18;3.38;;;2.30;;
65717;SDS011;52445;52.466;-1.016;2023-11-21T00:47:44;6.13;;;3.45;;
65717;SDS011;52445;52.466;-1.016;2023-11-21T00:50:11;4.45;;;3.25;;
65717;SDS011;52445;52.466;-1.016;2023-11-21T00:52:38;4.80;;;2.95;;
65717;SDS011;52445;52.466;-1.016;2023-11-21T00:55:05;4.20;;;2.53;;
65717;SDS011;52445;52.466;-1.016;2023-11-21T00:57:34;4.47;;;2.75;;
65717;SDS011;52445;52.466;-1.016;2023-11-21T01:00:01;3.72;;;2.25;;
65717;SDS011;52445;52.466;-1.016;2023-11-21T01:02:33;5.40;;;2.00;;
65717;SDS011;52445;52.466;-1.016;2023-11-21T01:05:02;3.03;;;1.98;;
65717;SDS011;52445;52.466;-1.016;2023-11-21T01:07:30;2.85;;;1.85;;
65717;SDS011;52445;52.466;-1.016;2023-11-21T01:09:57;3.33;;;1.02;;
65717;SDS011;52445;52.466;-1.016;2023-11-21T01:12:24;3.17;;;1.98;;
65717;SDS011;52445;52.466;-1.016;2023-11-21T01:14:52;2.17;;;1.45;;
65717;SDS011;52445;52.466;-1.016;2023-11-21T01:17:19;4.15;;;1.42;;
65717;SDS011;52445;52.466;-1.016;2023-11-21T01:19:48;2.22;;;1.45;;
65717;SDS011;52445;52.466;-1.016;2023-11-21T01:22:15;2.17;;;1.08;;
65717;SDS011;52445;52.466;-1.016;2023-11-21T01:24:42;2.17;;;1.92;;
65717;SDS011;52445;52.466;-1.016;2023-11-21T01:27:09;2.38;;;1.77;;
65717;SDS011;52445;52.466;-1.016;2023-11-21T01:29:36;2.75;;;1.23;;
65717;SDS011;52445;52.466;-1.016;2023-11-21T01:32:03;2.30;;;1.13;;
65717;SDS011;52445;52.466;-1.016;2023-11-21T01:34:30;2.05;;;1.70;;
65717;SDS011;52445;52.466;-1.016;2023-11-21T01:36:57;2.40;;;1.20;;
65717;SDS011;52445;52.466;-1.016;2023-11-21T01:39:24;2.30;;;1.63;;
65717;SDS011;52445;52.466;-1.016;2023-11-21T01:41:52;2.17;;;1.40;;
65717;SDS011;52445;52.466;-1.016;2023-11-21T01:44:18;2.80;;;0.80;;
65717;SDS011;52445;52.466;-1.016;2023-11-21T01:46:46;2.13;;;0.93;;
65717;SDS011;52445;52.466;-1.016;2023-11-21T01:49:14;1.65;;;1.25;;
65717;SDS011;52445;52.466;-1.016;2023-11-21T01:51:42;2.03;;;1.23;;
65717;SDS011;52445;52.466;-1.016;2023-11-21T01:54:11;2.33;;;1.42;;
65717;SDS011;52445;52.466;-1.016;2023-11-21T01:56:45;1.20;;;0.70;;
65717;SDS011;52445;52.466;-1.016;2023-11-21T01:59:14;1.13;;;0.70;;
65717;SDS011;52445;52.466;-1.016;2023-11-21T02:01:46;3.75;;;0.75;;
65717;SDS011;52445;52.466;-1.016;2023-11-21T02:04:13;1.10;;;0.77;;
65717;SDS011;52445;52.466;-1.016;2023-11-21T02:06:40;1.92;;;1.67;;
65717;SDS011;52445;52.466;-1.016;2023-11-21T02:09:07;1.73;;;1.38;;
65717;SDS011;52445;52.466;-1.016;2023-11-21T02:11:35;1.05;;;0.88;;
65717;SDS011;52445;52.466;-1.016;2023-11-21T02:14:01;2.38;;;1.10;;
65717;SDS011;52445;52.466;-1.016;2023-11-21T02:16:29;1.50;;;0.90;;
65717;SDS011;52445;52.466;-1.016;2023-11-21T02:18:57;2.30;;;0.93;;
65717;SDS011;52445;52.466;-1.016;2023-11-21T02:21:25;0.52;;;0.45;;
65717;SDS011;52445;52.466;-1.016;2023-11-21T02:23:52;1.48;;;0.82;;
65717;SDS011;52445;52.466;-1.016;2023-11-21T02:26:18;1.45;;;0.60;;
65717;SDS011;52445;52.466;-1.016;2023-11-21T02:28:46;1.20;;;0.85;;
65717;SDS011;52445;52.466;-1.016;2023-11-21T02:31:14;1.27;;;1.13;;
65717;SDS011;52445;52.466;-1.016;2023-11-21T02:33:41;1.15;;;0.77;;
65717;SDS011;52445;52.466;-1.016;2023-11-21T02:36:08;0.73;;;0.55;;
65717;SDS011;52445;52.466;-1.016;2023-11-21T02:38:35;1.70;;;0.68;;
65717;SDS011;52445;52.466;-1.016;2023-11-21T02:41:02;0.93;;;0.70;;
65717;SDS011;52445;52.466;-1.016;2023-11-21T02:43:30;1.63;;;0.80;;
65717;SDS011;52445;52.466;-1.016;2023-11-21T02:45:57;0.98;;;0.95;;
65717;SDS011;52445;52.466;-1.016;2023-11-21T02:48:23;0.95;;;0.73;;
65717;SDS011;52445;52.466;-1.016;2023-11-21T02:50:52;1.50;;;0.40;;
65717;SDS011;52445;52.466;-1.016;2023-11-21T02:53:19;0.85;;;0.80;;
65717;SDS011;52445;52.466;-1.016;2023-11-21T02:55:46;1.10;;;1.00;;
65717;SDS011;52445;52.466;-1.016;2023-11-21T02:58:13;3.63;;;1.33;;
65717;SDS011;52445;52.466;-1.016;2023-11-21T03:00:39;2.13;;;1.25;;
65717;SDS011;52445;52.466;-1.016;2023-11-21T03:03:08;1.33;;;0.65;;
65717;SDS011;52445;52.466;-1.016;2023-11-21T03:05:35;1.05;;;0.68;;
65717;SDS011;52445;52.466;-1.016;2023-11-21T03:08:03;1.52;;;1.10;;
65717;SDS011;52445;52.466;-1.016;2023-11-21T03:10:30;1.27;;;0.95;;
65717;SDS011;52445;52.466;-1.016;2023-11-21T03:12:56;0.90;;;0.55;;
65717;SDS011;52445;52.466;-1.016;2023-11-21T03:15:24;1.08;;;0.50;;
65717;SDS011;52445;52.466;-1.016;2023-11-21T03:17:50;0.80;;;0.47;;
65717;SDS011;52445;52.466;-1.016;2023-11-21T03:20:17;2.15;;;0.52;;
65717;SDS011;52445;52.466;-1.016;2023-11-21T03:22:44;0.63;;;0.43;;
65717;SDS011;52445;52.466;-1.016;2023-11-21T03:25:11;0.40;;;0.35;;
65717;SDS011;52445;52.466;-1.016;2023-11-21T03:27:38;0.70;;;0.52;;
65717;SDS011;52445;52.466;-1.016;2023-11-21T03:30:07;0.57;;;0.52;;
65717;SDS011;52445;52.466;-1.016;2023-11-21T03:32:35;1.00;;;0.90;;
65717;SDS011;52445;52.466;-1.016;2023-11-21T03:35:02;0.52;;;0.45;;
65717;SDS011;52445;52.466;-1.016;2023-11-21T03:37:29;1.58;;;1.02;;
65717;SDS011;52445;52.466;-1.016;2023-11-21T03:39:56;1.30;;;1.20;;
65717;SDS011;52445;52.466;-1.016;2023-11-21T03:42:23;4.70;;;0.98;;
65717;SDS011;52445;52.466;-1.016;2023-11-21T03:44:53;1.38;;;0.70;;
65717;SDS011;52445;52.466;-1.016;2023-11-21T03:47:20;1.23;;;0.63;;
65717;SDS011;52445;52.466;-1.016;2023-11-21T03:49:46;0.60;;;0.60;;
65717;SDS011;52445;52.466;-1.016;2023-11-21T03:52:13;2.38;;;0.82;;
65717;SDS011;52445;52.466;-1.016;2023-11-21T03:54:40;3.38;;;0.52;;
65717;SDS011;52445;52.466;-1.016;2023-11-21T03:57:07;1.30;;;0.73;;
65717;SDS011;52445;52.466;-1.016;2023-11-21T03:59:33;0.52;;;0.30;;
65717;SDS011;52445;52.466;-1.016;2023-11-21T04:02:00;1.83;;;1.15;;
65717;SDS011;52445;52.466;-1.016;2023-11-21T04:04:27;1.35;;;1.23;;
65717;SDS011;52445;52.466;-1.016;2023-11-21T04:06:53;1.92;;;0.85;;
65717;SDS011;52445;52.466;-1.016;2023-11-21T04:09:20;2.78;;;0.73;;
65717;SDS011;52445;52.466;-1.016;2023-11-21T04:11:47;0.63;;;0.60;;
65717;SDS011;52445;52.466;-1.016;2023-11-21T04:14:14;2.33;;;0.93;;
65717;SDS011;52445;52.466;-1.016;2023-11-21T04:16:41;0.68;;;0.30;;
65717;SDS011;52445;52.466;-1.016;2023-11-21T04:19:08;2.25;;;0.40;;
65717;SDS011;52445;52.466;-1.016;2023-11-21T04:21:41;0.55;;;0.43;;
65717;SDS011;52445;52.466;-1.016;2023-11-21T04:24:08;0.60;;;0.30;;
65717;SDS011;52445;52.466;-1.016;2023-11-21T04:26:36;2.78;;;0.65;;
65717;SDS011;52445;52.466;-1.016;2023-11-21T04:29:02;0.85;;;0.85;;
65717;SDS011;52445;52.466;-1.016;2023-11-21T04:31:30;0.98;;;0.68;;
65717;SDS011;52445;52.466;-1.016;2023-11-21T04:33:58;0.98;;;0.73;;
65717;SDS011;52445;52.466;-1.016;2023-11-21T04:36:25;2.80;;;0.85;;
65717;SDS011;52445;52.466;-1.016;2023-11-21T04:38:52;1.10;;;1.10;;
65717;SDS011;52445;52.466;-1.016;2023-11-21T04:41:19;0.75;;;0.63;;
65717;SDS011;52445;52.466;-1.016;2023-11-21T04:43:46;1.75;;;0.93;;
65717;SDS011;52445;52.466;-1.016;2023-11-21T04:46:12;2.20;;;1.10;;
65717;SDS011;52445;52.466;-1.016;2023-11-21T04:48:39;0.98;;;0.95;;
65717;SDS011;52445;52.466;-1.016;2023-11-21T04:51:06;1.35;;;1.25;;
65717;SDS011;52445;52.466;-1.016;2023-11-21T04:53:33;0.80;;;0.55;;
65717;SDS011;52445;52.466;-1.016;2023-11-21T04:56:01;0.80;;;0.55;;
65717;SDS011;52445;52.466;-1.016;2023-11-21T04:58:28;0.80;;;0.70;;
65717;SDS011;52445;52.466;-1.016;2023-11-21T05:00:54;1.33;;;0.40;;
65717;SDS011;52445;52.466;-1.016;2023-11-21T05:03:21;1.33;;;1.02;;
65717;SDS011;52445;52.466;-1.016;2023-11-21T05:05:50;0.75;;;0.68;;
65717;SDS011;52445;52.466;-1.016;2023-11-21T05:08:17;0.75;;;0.75;;
65717;SDS011;52445;52.466;-1.016;2023-11-21T05:10:45;1.10;;;1.08;;
65717;SDS011;52445;52.466;-1.016;2023-11-21T05:13:12;0.73;;;0.32;;
65717;SDS011;52445;52.466;-1.016;2023-11-21T05:15:38;0.95;;;0.75;;
65717;SDS011;52445;52.466;-1.016;2023-11-21T05:18:05;2.78;;;0.47;;
65717;SDS011;52445;52.466;-1.016;2023-11-21T05:20:33;2.13;;;0.82;;
65717;SDS011;52445;52.466;-1.016;2023-11-21T05:22:59;1.92;;;0.52;;
65717;SDS011;52445;52.466;-1.016;2023-11-21T05:25:27;1.25;;;1.23;;
65717;SDS011;52445;52.466;-1.016;2023-11-21T05:27:53;0.70;;;0.60;;
65717;SDS011;52445;52.466;-1.016;2023-11-21T05:30:21;1.25;;;0.63;;
65717;SDS011;52445;52.466;-1.016;2023-11-21T05:32:48;1.60;;;1.08;;
65717;SDS011;52445;52.466;-1.016;2023-11-21T05:35:16;0.45;;;0.45;;
65717;SDS011;52445;52.466;-1.016;2023-11-21T05:37:44;0.45;;;0.45;;
65717;SDS011;52445;52.466;-1.016;2023-11-21T05:40:12;0.47;;;0.40;;
65717;SDS011;52445;52.466;-1.016;2023-11-21T05:42:39;3.55;;;0.90;;
65717;SDS011;52445;52.466;-1.016;2023-11-21T05:45:07;3.35;;;1.52;;
65717;SDS011;52445;52.466;-1.016;2023-11-21T05:47:39;0.68;;;0.50;;
65717;SDS011;52445;52.466;-1.016;2023-11-21T05:50:08;1.25;;;0.52;;
65717;SDS011;52445;52.466;-1.016;2023-11-21T05:52:38;0.63;;;0.52;;
65717;SDS011;52445;52.466;-1.016;2023-11-21T05:55:07;1.13;;;0.50;;
65717;SDS011;52445;52.466;-1.016;2023-11-21T05:57:34;1.33;;;0.57;;
65717;SDS011;52445;52.466;-1.016;2023-11-21T06:00:03;1.63;;;0.32;;
65717;SDS011;52445;52.466;-1.016;2023-11-21T06:02:49;0.50;;;0.50;;
65717;SDS011;52445;52.466;-1.016;2023-11-21T06:05:19;0.93;;;0.77;;
65717;SDS011;52445;52.466;-1.016;2023-11-21T06:07:47;1.10;;;0.93;;
65717;SDS011;52445;52.466;-1.016;2023-11-21T06:10:14;0.73;;;0.63;;
65717;SDS011;52445;52.466;-1.016;2023-11-21T06:12:41;0.85;;;0.65;;
65717;SDS011;52445;52.466;-1.016;2023-11-21T06:15:09;0.55;;;0.30;;
65717;SDS011;52445;52.466;-1.016;2023-11-21T06:17:41;1.02;;;0.43;;
65717;SDS011;52445;52.466;-1.016;2023-11-21T06:20:09;1.60;;;0.50;;
65717;SDS011;52445;52.466;-1.016;2023-11-21T06:22:38;2.05;;;1.05;;
65717;SDS011;52445;52.466;-1.016;2023-11-21T06:25:07;1.10;;;0.98;;
65717;SDS011;52445;52.466;-1.016;2023-11-21T06:27:40;1.65;;;0.35;;
65717;SDS011;52445;52.466;-1.016;2023-11-21T06:30:09;0.57;;;0.30;;
65717;SDS011;52445;52.466;-1.016;2023-11-21T06:32:36;1.25;;;0.80;;
65717;SDS011;52445;52.466;-1.016;2023-11-21T06:35:03;1.23;;;0.77;;
65717;SDS011;52445;52.466;-1.016;2023-11-21T06:37:31;0.82;;;0.55;;
65717;SDS011;52445;52.466;-1.016;2023-11-21T06:39:59;0.43;;;0.38;;
65717;SDS011;52445;52.466;-1.016;2023-11-21T06:42:26;1.48;;;1.15;;
65717;SDS011;52445;52.466;-1.016;2023-11-21T06:44:55;1.10;;;0.95;;
65717;SDS011;52445;52.466;-1.016;2023-11-21T06:47:23;1.27;;;0.85;;
65717;SDS011;52445;52.466;-1.016;2023-11-21T06:49:52;0.68;;;0.57;;
65717;SDS011;52445;52.466;-1.016;2023-11-21T06:52:20;0.55;;;0.35;;
65717;SDS011;52445;52.466;-1.016;2023-11-21T06:54:50;0.70;;;0.63;;
65717;SDS011;52445;52.466;-1.016;2023-11-21T06:57:16;0.47;;;0.45;;
65717;SDS011;52445;52.466;-1.016;2023-11-21T06:59:43;0.85;;;0.75;;
65717;SDS011;52445;52.466;-1.016;2023-11-21T07:02:10;1.02;;;0.93;;
65717;SDS011;52445;52.466;-1.016;2023-11-21T07:04:37;2.08;;;0.88;;
65717;SDS011;52445;52.466;-1.016;2023-11-21T07:07:04;1.38;;;1.27;;
65717;SDS011;52445;52.466;-1.016;2023-11-21T07:09:33;1.92;;;1.77;;
65717;SDS011;52445;52.466;-1.016;2023-11-21T07:12:00;3.10;;;1.10;;
65717;SDS011;52445;52.466;-1.016;2023-11-21T07:14:27;0.85;;;0.55;;
65717;SDS011;52445;52.466;-1.016;2023-11-21T07:16:54;0.90;;;0.63;;
65717;SDS011;52445;52.466;-1.016;2023-11-21T07:19:21;1.63;;;0.40;;
65717;SDS011;52445;52.466;-1.016;2023-11-21T07:21:48;1.25;;;1.15;;
65717;SDS011;52445;52.466;-1.016;2023-11-21T07:24:17;1.13;;;1.02;;
65717;SDS011;52445;52.466;-1.016;2023-11-21T07:26:44;1.85;;;1.20;;
65717;SDS011;52445;52.466;-1.016;2023-11-21T07:29:11;1.67;;;1.15;;
65717;SDS011;52445;52.466;-1.016;2023-11-21T07:31:38;1.75;;;1.17;;
65717;SDS011;52445;52.466;-1.016;2023-11-21T07:34:05;1.45;;;0.85;;
65717;SDS011;52445;52.466;-1.016;2023-11-21T07:36:32;1.42;;;1.05;;
65717;SDS011;52445;52.466;-1.016;2023-11-21T07:38:58;1.75;;;1.48;;
65717;SDS011;52445;52.466;-1.016;2023-11-21T07:41:25;1.95;;;1.35;;
65717;SDS011;52445;52.466;-1.016;2023-11-21T07:43:57;1.85;;;1.20;;
65717;SDS011;52445;52.466;-1.016;2023-11-21T07:46:25;2.45;;;2.03;;
65717;SDS011;52445;52.466;-1.016;2023-11-21T07:48:53;1.50;;;0.95;;
65717;SDS011;52445;52.466;-1.016;2023-11-21T07:51:21;2.33;;;0.90;;
65717;SDS011;52445;52.466;-1.016;2023-11-21T07:53:48;1.52;;;0.80;;
65717;SDS011;52445;52.466;-1.016;2023-11-21T07:56:16;1.90;;;1.48;;
65717;SDS011;52445;52.466;-1.016;2023-11-21T07:58:43;3.42;;;1.23;;
65717;SDS011;52445;52.466;-1.016;2023-11-21T08:01:10;2.42;;;1.38;;
65717;SDS011;52445;52.466;-1.016;2023-11-21T08:03:38;1.23;;;0.82;;
65717;SDS011;52445;52.466;-1.016;2023-11-21T08:06:05;1.40;;;1.30;;
65717;SDS011;52445;52.466;-1.016;2023-11-21T08:08:32;1.52;;;0.75;;
65717;SDS011;52445;52.466;-1.016;2023-11-21T08:10:59;0.85;;;0.73;;
65717;SDS011;52445;52.466;-1.016;2023-11-21T08:13:29;1.35;;;1.25;;
65717;SDS011;52445;52.466;-1.016;2023-11-21T08:15:58;1.25;;;0.50;;
65717;SDS011;52445;52.466;-1.016;2023-11-21T08:18:29;0.98;;;0.88;;
65717;SDS011;52445;52.466;-1.016;2023-11-21T08:20:56;2.03;;;0.68;;
65717;SDS011;52445;52.466;-1.016;2023-11-21T08:23:23;1.55;;;1.15;;
65717;SDS011;52445;52.466;-1.016;2023-11-21T08:25:54;1.13;;;0.98;;
65717;SDS011;52445;52.466;-1.016;2023-11-21T08:28:21;1.08;;;0.95;;
65717;SDS011;52445;52.466;-1.016;2023-11-21T08:30:52;1.13;;;0.73;;
65717;SDS011;52445;52.466;-1.016;2023-11-21T08:33:21;0.95;;;0.55;;
65717;SDS011;52445;52.466;-1.016;2023-11-21T08:35:48;0.93;;;0.88;;
65717;SDS011;52445;52.466;-1.016;2023-11-21T08:38:15;1.35;;;1.25;;
65717;SDS011;52445;52.466;-1.016;2023-11-21T08:40:42;1.02;;;0.93;;
65717;SDS011;52445;52.466;-1.016;2023-11-21T08:43:08;1.23;;;1.13;;
65717;SDS011;52445;52.466;-1.016;2023-11-21T08:45:35;0.90;;;0.68;;
65717;SDS011;52445;52.466;-1.016;2023-11-21T08:48:02;1.13;;;1.02;;
65717;SDS011;52445;52.466;-1.016;2023-11-21T08:50:29;0.80;;;0.80;;
65717;SDS011;52445;52.466;-1.016;2023-11-21T08:52:55;0.80;;;0.68;;
65717;SDS011;52445;52.466;-1.016;2023-11-21T08:55:22;1.58;;;0.50;;
65717;SDS011;52445;52.466;-1.016;2023-11-21T08:57:49;1.15;;;0.40;;
65717;SDS011;52445;52.466;-1.016;2023-11-21T09:00:17;0.50;;;0.32;;
65717;SDS011;52445;52.466;-1.016;2023-11-21T09:02:45;0.65;;;0.65;;
65717;SDS011;52445;52.466;-1.016;2023-11-21T09:05:12;0.52;;;0.43;;
65717;SDS011;52445;52.466;-1.016;2023-11-21T09:07:41;0.47;;;0.30;;
65717;SDS011;52445;52.466;-1.016;2023-11-21T09:10:09;1.23;;;1.13;;
65717;SDS011;52445;52.466;-1.016;2023-11-21T09:12:36;0.73;;;0.50;;
65717;SDS011;52445;52.466;-1.016;2023-11-21T09:15:04;0.57;;;0.50;;
65717;SDS011;52445;52.466;-1.016;2023-11-21T09:17:32;0.82;;;0.55;;
65717;SDS011;52445;52.466;-1.016;2023-11-21T09:20:01;0.88;;;0.73;;
65717;SDS011;52445;52.466;-1.016;2023-11-21T09:22:32;3.92;;;0.85;;
65717;SDS011;52445;52.466;-1.016;2023-11-21T09:24:59;1.17;;;1.08;;
65717;SDS011;52445;52.466;-1.016;2023-11-21T09:27:26;1.17;;;0.80;;
65717;SDS011;52445;52.466;-1.016;2023-11-21T09:29:53;1.27;;;1.08;;
65717;SDS011;52445;52.466;-1.016;2023-11-21T09:32:20;1.50;;;0.93;;
65717;SDS011;52445;52.466;-1.016;2023-11-21T09:34:48;1.48;;;0.93;;
65717;SDS011;52445;52.466;-1.016;2023-11-21T09:37:16;0.70;;;0.40;;
65717;SDS011;52445;52.466;-1.016;2023-11-21T09:39:43;1.33;;;0.65;;
65717;SDS011;52445;52.466;-1.016;2023-11-21T09:42:20;2.45;;;1.00;;
65717;SDS011;52445;52.466;-1.016;2023-11-21T09:47:28;1.85;;;0.80;;
65717;SDS011;52445;52.466;-1.016;2023-11-21T09:49:56;0.98;;;0.60;;
65717;SDS011;52445;52.466;-1.016;2023-11-21T09:52:28;1.48;;;1.00;;
65717;SDS011;52445;52.466;-1.016;2023-11-21T09:54:55;2.05;;;1.65;;
65717;SDS011;52445;52.466;-1.016;2023-11-21T09:57:26;1.67;;;0.88;;
65717;SDS011;52445;52.466;-1.016;2023-11-21T09:59:54;1.77;;;0.52;;
65717;SDS011;52445;52.466;-1.016;2023-11-21T10:02:26;1.25;;;0.70;;
65717;SDS011;52445;52.466;-1.016;2023-11-21T10:04:58;1.33;;;0.65;;
65717;SDS011;52445;52.466;-1.016;2023-11-21T10:07:26;3.05;;;1.35;;
65717;SDS011;52445;52.466;-1.016;2023-11-21T10:09:56;1.38;;;0.90;;
65717;SDS011;52445;52.466;-1.016;2023-11-21T10:12:25;0.40;;;0.30;;
65717;SDS011;52445;52.466;-1.016;2023-11-21T10:14:53;2.28;;;0.68;;
65717;SDS011;52445;52.466;-1.016;2023-11-21T10:17:22;0.80;;;0.73;;
65717;SDS011;52445;52.466;-1.016;2023-11-21T10:22:20;1.63;;;0.80;;
65717;SDS011;52445;52.466;-1.016;2023-11-21T10:24:48;0.93;;;0.75;;
65717;SDS011;52445;52.466;-1.016;2023-11-21T10:27:19;0.98;;;0.55;;
65717;SDS011;52445;52.466;-1.016;2023-11-21T10:29:46;0.88;;;0.68;;
65717;SDS011;52445;52.466;-1.016;2023-11-21T10:32:12;1.83;;;0.60;;
65717;SDS011;52445;52.466;-1.016;2023-11-21T10:34:39;2.65;;;1.23;;
65717;SDS011;52445;52.466;-1.016;2023-11-21T10:37:11;0.65;;;0.40;;
65717;SDS011;52445;52.466;-1.016;2023-11-21T10:39:39;3.70;;;1.42;;
65717;SDS011;52445;52.466;-1.016;2023-11-21T10:42:08;2.33;;;0.73;;
65717;SDS011;52445;52.466;-1.016;2023-11-21T10:44:36;2.65;;;0.77;;
65717;SDS011;52445;52.466;-1.016;2023-11-21T10:47:04;2.75;;;0.52;;
65717;SDS011;52445;52.466;-1.016;2023-11-21T10:49:31;1.65;;;0.28;;
65717;SDS011;52445;52.466;-1.016;2023-11-21T10:51:59;0.50;;;0.20;;
65717;SDS011;52445;52.466;-1.016;2023-11-21T10:54:28;3.92;;;0.73;;
65717;SDS011;52445;52.466;-1.016;2023-11-21T10:56:57;2.03;;;0.55;;
65717;SDS011;52445;52.466;-1.016;2023-11-21T10:59:28;1.52;;;1.42;;
65717;SDS011;52445;52.466;-1.016;2023-11-21T11:01:58;1.77;;;1.08;;
65717;SDS011;52445;52.466;-1.016;2023-11-21T11:04:27;3.53;;;0.70;;
65717;SDS011;52445;52.466;-1.016;2023-11-21T11:06:55;2.42;;;0.90;;
65717;SDS011;52445;52.466;-1.016;2023-11-21T11:09:24;1.70;;;0.82;;
65717;SDS011;52445;52.466;-1.016;2023-11-21T11:11:51;3.70;;;0.65;;
65717;SDS011;52445;52.466;-1.016;2023-11-21T11:14:19;1.70;;;1.05;;
65717;SDS011;52445;52.466;-1.016;2023-11-21T11:16:46;8.00;;;0.80;;
65717;SDS011;52445;52.466;-1.016;2023-11-21T11:19:15;7.32;;;0.88;;
65717;SDS011;52445;52.466;-1.016;2023-11-21T11:22:03;1.08;;;0.70;;
65717;SDS011;52445;52.466;-1.016;2023-11-21T11:25:03;4.28;;;1.02;;
65717;SDS011;52445;52.466;-1.016;2023-11-21T11:27:54;2.22;;;0.82;;
65717;SDS011;52445;52.466;-1.016;2023-11-21T11:36:29;1.92;;;1.67;;
65717;SDS011;52445;52.466;-1.016;2023-11-21T11:39:02;3.35;;;1.45;;
65717;SDS011;52445;52.466;-1.016;2023-11-21T11:41:31;5.07;;;1.92;;
65717;SDS011;52445;52.466;-1.016;2023-11-21T11:44:00;8.18;;;1.90;;
65717;SDS011;52445;52.466;-1.016;2023-11-21T11:46:44;3.03;;;1.75;;
65717;SDS011;52445;52.466;-1.016;2023-11-21T11:49:28;5.45;;;2.00;;
65717;SDS011;52445;52.466;-1.016;2023-11-21T11:54:59;3.22;;;1.92;;
65717;SDS011;52445;52.466;-1.016;2023-11-21T11:57:26;3.22;;;2.00;;
65717;SDS011;52445;52.466;-1.016;2023-11-21T12:00:14;6.93;;;1.58;;
65717;SDS011;52445;52.466;-1.016;2023-11-21T12:02:44;3.25;;;1.70;;
65717;SDS011;52445;52.466;-1.016;2023-11-21T12:05:13;3.75;;;2.55;;
65717;SDS011;52445;52.466;-1.016;2023-11-21T12:10:27;3.97;;;0.93;;
65717;SDS011;52445;52.466;-1.016;2023-11-21T12:12:56;5.93;;;1.33;;
65717;SDS011;52445;52.466;-1.016;2023-11-21T12:15:24;5.38;;;3.17;;
65717;SDS011;52445;52.466;-1.016;2023-11-21T12:17:52;2.92;;;1.10;;
65717;SDS011;52445;52.466;-1.016;2023-11-21T12:20:19;4.53;;;1.25;;
65717;SDS011;52445;52.466;-1.016;2023-11-21T12:22:49;3.08;;;1.10;;
65717;SDS011;52445;52.466;-1.016;2023-11-21T12:25:28;4.93;;;0.73;;
65717;SDS011;52445;52.466;-1.016;2023-11-21T12:27:59;3.33;;;1.45;;
65717;SDS011;52445;52.466;-1.016;2023-11-21T12:30:27;4.65;;;1.60;;
65717;SDS011;52445;52.466;-1.016;2023-11-21T12:32:58;1.70;;;0.98;;
65717;SDS011;52445;52.466;-1.016;2023-11-21T12:35:27;2.88;;;1.40;;
65717;SDS011;52445;52.466;-1.016;2023-11-21T12:37:56;3.80;;;0.88;;
65717;SDS011;52445;52.466;-1.016;2023-11-21T12:40:24;2.90;;;1.10;;
65717;SDS011;52445;52.466;-1.016;2023-11-21T12:42:52;3.38;;;1.25;;
65717;SDS011;52445;52.466;-1.016;2023-11-21T12:45:21;4.50;;;1.23;;
65717;SDS011;52445;52.466;-1.016;2023-11-21T12:47:49;3.60;;;1.35;;
65717;SDS011;52445;52.466;-1.016;2023-11-21T12:50:19;2.83;;;0.82;;
65717;SDS011;52445;52.466;-1.016;2023-11-21T12:52:50;0.95;;;0.50;;
65717;SDS011;52445;52.466;-1.016;2023-11-21T12:55:18;2.10;;;0.75;;
65717;SDS011;52445;52.466;-1.016;2023-11-21T12:57:50;3.15;;;0.73;;
65717;SDS011;52445;52.466;-1.016;2023-11-21T13:00:27;2.63;;;1.45;;
65717;SDS011;52445;52.466;-1.016;2023-11-21T13:02:58;1.27;;;0.70;;
65717;SDS011;52445;52.466;-1.016;2023-11-21T13:05:27;1.20;;;0.80;;
65717;SDS011;52445;52.466;-1.016;2023-11-21T13:07:57;2.35;;;0.50;;
65717;SDS011;52445;52.466;-1.016;2023-11-21T13:10:29;5.50;;;0.85;;
65717;SDS011;52445;52.466;-1.016;2023-11-21T13:12:58;3.80;;;1.30;;
65717;SDS011;52445;52.466;-1.016;2023-11-21T13:15:27;5.05;;;0.70;;
65717;SDS011;52445;52.466;-1.016;2023-11-21T13:17:54;1.85;;;1.02;;
65717;SDS011;52445;52.466;-1.016;2023-11-21T13:20:24;2.30;;;1.00;;
65717;SDS011;52445;52.466;-1.016;2023-11-21T13:25:29;2.60;;;2.05;;
65717;SDS011;52445;52.466;-1.016;2023-11-21T13:27:58;2.38;;;1.95;;
65717;SDS011;52445;52.466;-1.016;2023-11-21T13:30:24;2.70;;;1.73;;
65717;SDS011;52445;52.466;-1.016;2023-11-21T13:32:53;3.10;;;2.05;;
65717;SDS011;52445;52.466;-1.016;2023-11-21T13:35:23;3.47;;;2.38;;
65717;SDS011;52445;52.466;-1.016;2023-11-21T13:38:11;5.45;;;1.55;;
65717;SDS011;52445;52.466;-1.016;2023-11-21T13:40:39;2.50;;;2.35;;
65717;SDS011;52445;52.466;-1.016;2023-11-21T13:43:12;2.65;;;2.45;;
65717;SDS011;52445;52.466;-1.016;2023-11-21T13:45:42;2.58;;;2.38;;
65717;SDS011;52445;52.466;-1.016;2023-11-21T13:48:11;4.18;;;2.45;;
65717;SDS011;52445;52.466;-1.016;2023-11-21T13:50:45;3.65;;;2.53;;
65717;SDS011;52445;52.466;-1.016;2023-11-21T13:53:22;3.75;;;0.47;;
65717;SDS011;52445;52.466;-1.016;2023-11-21T13:55:49;2.30;;;2.10;;
65717;SDS011;52445;52.466;-1.016;2023-11-21T13:58:17;2.95;;;2.63;;
65717;SDS011;52445;52.466;-1.016;2023-11-21T14:00:45;3.50;;;2.78;;
65717;SDS011;52445;52.466;-1.016;2023-11-21T14:03:13;6.18;;;2.67;;
65717;SDS011;52445;52.466;-1.016;2023-11-21T14:05:48;3.63;;;2.10;;
65717;SDS011;52445;52.466;-1.016;2023-11-21T14:08:19;1.95;;;1.48;;
65717;SDS011;52445;52.466;-1.016;2023-11-21T14:10:47;3.30;;;1.83;;
65717;SDS011;52445;52.466;-1.016;2023-11-21T14:13:21;2.83;;;2.08;;
65717;SDS011;52445;52.466;-1.016;2023-11-21T14:15:50;2.17;;;2.08;;
65717;SDS011;52445;52.466;-1.016;2023-11-21T14:18:20;2.35;;;2.00;;
65717;SDS011;52445;52.466;-1.016;2023-11-21T14:20:56;3.63;;;2.20;;
65717;SDS011;52445;52.466;-1.016;2023-11-21T14:23:23;3.22;;;2.10;;
65717;SDS011;52445;52.466;-1.016;2023-11-21T14:25:49;7.78;;;2.25;;
65717;SDS011;52445;52.466;-1.016;2023-11-21T14:28:17;5.68;;;2.20;;
65717;SDS011;52445;52.466;-1.016;2023-11-21T14:30:46;2.20;;;1.85;;
65717;SDS011;52445;52.466;-1.016;2023-11-21T14:33:13;4.18;;;3.88;;
65717;SDS011;52445;52.466;-1.016;2023-11-21T14:35:40;3.45;;;2.70;;
65717;SDS011;52445;52.466;-1.016;2023-11-21T14:38:06;4.30;;;2.20;;
65717;SDS011;52445;52.466;-1.016;2023-11-21T14:40:33;4.97;;;2.33;;
65717;SDS011;52445;52.466;-1.016;2023-11-21T14:43:02;3.38;;;2.42;;
65717;SDS011;52445;52.466;-1.016;2023-11-21T14:45:33;1.92;;;1.80;;
65717;SDS011;52445;52.466;-1.016;2023-11-21T14:48:00;3.65;;;2.65;;
65717;SDS011;52445;52.466;-1.016;2023-11-21T14:50:41;2.38;;;0.95;;
65717;SDS011;52445;52.466;-1.016;2023-11-21T14:53:17;3.83;;;1.35;;
65717;SDS011;52445;52.466;-1.016;2023-11-21T14:56:04;2.97;;;2.55;;
65717;SDS011;52445;52.466;-1.016;2023-11-21T14:58:31;4.82;;;2.08;;
65717;SDS011;52445;52.466;-1.016;2023-11-21T15:00:58;2.20;;;2.00;;